Time;durP1;ratioP1;P1;durP2;ratioP2;P2;SDS_P1;SDS_P2;PMS_P1;PMS_P2;Temp;Humidity;BMP_temperature;BMP_pressure;BME280_temperature;BME280_humidity;BME280_pressure;Samples;Min_cycle;Max_cycle;Signal;HPM_P1;HPM_P2
2021/03/14 00:00:48;;;;;;;13.45;4.60;;;15.70;99.90;;;;;;5052782;28;20049;-61
2021/03/14 00:03:17;;;;;;;12.98;4.57;;;15.60;99.90;;;;;;5051274;28;20068;-59
2021/03/14 00:05:44;;;;;;;13.32;4.13;;;15.60;99.90;;;;;;5053533;28;20025;-59
2021/03/14 00:08:11;;;;;;;13.73;3.90;;;15.60;99.90;;;;;;5053518;28;20140;-59
2021/03/14 00:10:42;;;;;;;10.85;3.75;;;15.60;99.90;;;;;;5053894;28;20032;-58
2021/03/14 00:13:10;;;;;;;12.00;3.67;;;15.60;99.90;;;;;;5053553;28;20059;-61
2021/03/14 00:15:36;;;;;;;11.43;3.28;;;15.50;99.90;;;;;;5053598;28;20128;-62
2021/03/14 00:18:02;;;;;;;12.55;3.45;;;15.50;99.90;;;;;;5053132;28;20105;-61
2021/03/14 00:20:27;;;;;;;13.32;3.42;;;15.50;99.90;;;;;;5053399;28;20068;-60
2021/03/14 00:22:53;;;;;;;10.43;3.30;;;15.40;99.90;;;;;;5053519;28;20024;-60
2021/03/14 00:25:20;;;;;;;9.85;3.13;;;15.40;99.90;;;;;;5053088;28;20032;-59
2021/03/14 00:27:45;;;;;;;8.55;3.10;;;15.40;99.90;;;;;;5053663;28;20412;-59
2021/03/14 00:30:16;;;;;;;9.90;3.28;;;15.40;99.90;;;;;;5052961;28;20040;-61
2021/03/14 00:32:42;;;;;;;10.70;3.20;;;15.30;99.90;;;;;;5051915;28;20481;-58
2021/03/14 00:35:11;;;;;;;8.43;3.17;;;15.30;99.90;;;;;;5053053;28;20055;-62
2021/03/14 00:37:37;;;;;;;11.15;3.25;;;15.30;99.90;;;;;;5053620;28;20027;-60
2021/03/14 00:40:05;;;;;;;9.20;3.08;;;15.30;99.90;;;;;;5052575;28;20029;-61
2021/03/14 00:42:31;;;;;;;9.05;3.30;;;15.30;99.90;;;;;;5053379;28;20031;-60
2021/03/14 00:44:57;;;;;;;10.82;3.08;;;15.20;99.90;;;;;;5052849;28;20021;-62
2021/03/14 00:47:22;;;;;;;9.75;2.97;;;15.20;99.90;;;;;;5052319;28;20040;-59
2021/03/14 00:49:48;;;;;;;9.48;2.80;;;15.20;99.90;;;;;;5052821;28;20040;-60
2021/03/14 00:52:14;;;;;;;10.45;2.63;;;15.20;99.90;;;;;;5053003;28;20053;-60
2021/03/14 00:54:39;;;;;;;8.93;2.85;;;15.10;99.90;;;;;;5052937;28;20029;-60
2021/03/14 00:57:06;;;;;;;9.70;3.03;;;15.10;99.90;;;;;;5052672;28;20035;-60
2021/03/14 00:59:31;;;;;;;9.88;2.85;;;15.10;99.90;;;;;;5052627;28;20078;-60
2021/03/14 01:01:57;;;;;;;8.75;2.83;;;15.00;99.90;;;;;;5051101;28;20124;-62
2021/03/14 01:04:23;;;;;;;9.85;2.80;;;15.00;99.90;;;;;;5052216;28;20051;-62
2021/03/14 01:06:48;;;;;;;8.38;2.75;;;15.00;99.90;;;;;;5052220;28;20118;-60
2021/03/14 01:09:14;;;;;;;11.45;3.30;;;15.00;99.90;;;;;;5052164;28;20552;-62
2021/03/14 01:11:39;;;;;;;7.70;2.75;;;15.00;99.90;;;;;;5052580;28;20032;-61
2021/03/14 01:14:06;;;;;;;9.80;2.72;;;14.90;99.90;;;;;;5052201;28;20035;-61
2021/03/14 01:16:31;;;;;;;9.73;2.65;;;14.90;99.90;;;;;;5052147;28;20063;-61
2021/03/14 01:18:57;;;;;;;7.07;2.35;;;14.90;99.90;;;;;;5052266;28;20048;-61
2021/03/14 01:21:22;;;;;;;6.57;2.20;;;14.90;99.90;;;;;;5052292;28;20135;-61
2021/03/14 01:23:48;;;;;;;7.43;2.25;;;15.00;99.90;;;;;;5052408;28;20021;-60
2021/03/14 01:26:14;;;;;;;7.72;2.15;;;14.90;99.90;;;;;;5052337;28;20064;-59
2021/03/14 01:28:39;;;;;;;8.23;2.35;;;14.90;99.90;;;;;;5052364;28;20021;-60
2021/03/14 01:31:05;;;;;;;5.93;2.10;;;14.90;99.90;;;;;;5051999;28;20116;-62
2021/03/14 01:33:30;;;;;;;7.30;1.80;;;14.80;99.90;;;;;;5051665;28;20100;-62
2021/03/14 01:35:56;;;;;;;6.35;2.00;;;14.80;99.90;;;;;;5051985;28;20466;-61
2021/03/14 01:38:22;;;;;;;8.18;1.73;;;14.80;99.90;;;;;;5052195;28;20028;-59
2021/03/14 01:40:48;;;;;;;5.25;1.80;;;14.70;99.90;;;;;;5051933;28;20052;-59
2021/03/14 01:43:14;;;;;;;5.68;2.10;;;14.70;99.90;;;;;;5052427;28;20071;-62
2021/03/14 01:45:40;;;;;;;5.93;2.15;;;14.70;99.90;;;;;;5052416;28;20029;-59
2021/03/14 01:48:07;;;;;;;7.85;2.03;;;14.70;99.90;;;;;;5051795;28;20036;-60
2021/03/14 01:50:34;;;;;;;6.15;1.88;;;14.60;99.90;;;;;;5051933;28;20025;-60
2021/03/14 01:52:59;;;;;;;8.52;1.75;;;14.60;99.90;;;;;;5052057;28;20041;-61
2021/03/14 01:55:25;;;;;;;11.77;2.53;;;14.60;99.90;;;;;;5050096;28;20417;-61
2021/03/14 01:57:51;;;;;;;9.20;1.90;;;14.60;99.90;;;;;;5051880;28;20025;-61
2021/03/14 02:00:21;;;;;;;9.32;2.13;;;14.60;99.90;;;;;;5050842;28;20039;-61
2021/03/14 02:02:47;;;;;;;7.28;1.90;;;14.50;99.90;;;;;;5050998;28;20028;-61
2021/03/14 02:05:16;;;;;;;5.60;1.85;;;14.50;99.90;;;;;;5051840;28;20025;-61
2021/03/14 02:07:44;;;;;;;7.80;1.73;;;14.50;99.90;;;;;;5052108;28;20036;-61
2021/03/14 02:10:11;;;;;;;6.88;1.65;;;14.50;99.90;;;;;;5051429;28;20049;-61
2021/03/14 02:12:45;;;;;;;5.40;1.80;;;14.50;99.90;;;;;;5051528;28;20550;-62
2021/03/14 02:15:12;;;;;;;5.40;1.90;;;14.50;99.90;;;;;;5052077;28;20046;-60
2021/03/14 02:17:41;;;;;;;5.05;1.70;;;14.50;99.90;;;;;;5051444;28;20036;-59
2021/03/14 02:20:16;;;;;;;5.95;2.00;;;14.40;99.90;;;;;;5051676;28;20075;-60
2021/03/14 02:22:47;;;;;;;6.85;1.80;;;14.40;99.90;;;;;;5051745;28;20102;-61
2021/03/14 02:25:21;;;;;;;4.05;1.50;;;14.40;99.90;;;;;;5051383;28;20120;-61
2021/03/14 02:27:48;;;;;;;7.03;1.90;;;14.40;99.90;;;;;;5051773;28;20025;-62
2021/03/14 02:30:15;;;;;;;6.00;1.52;;;14.40;99.90;;;;;;5051506;28;20064;-61
2021/03/14 02:32:43;;;;;;;8.43;1.95;;;14.40;99.90;;;;;;5040859;28;20060;-61
2021/03/14 02:35:09;;;;;;;4.63;1.75;;;14.40;99.90;;;;;;5051878;28;20041;-61
2021/03/14 02:37:37;;;;;;;9.27;2.10;;;14.40;99.90;;;;;;5046059;28;20074;-61
2021/03/14 02:40:05;;;;;;;5.38;1.52;;;14.40;99.90;;;;;;5054603;28;20031;-62
2021/03/14 02:42:31;;;;;;;4.30;1.48;;;14.40;99.90;;;;;;5055027;28;20027;-60
2021/03/14 02:44:57;;;;;;;5.53;1.40;;;14.30;99.90;;;;;;5055514;28;20056;-61
2021/03/14 02:47:27;;;;;;;4.32;1.67;;;14.40;99.90;;;;;;5054676;28;20473;-61
2021/03/14 02:49:53;;;;;;;5.28;1.75;;;14.30;99.90;;;;;;5055256;28;20036;-61
2021/03/14 02:52:22;;;;;;;5.10;1.50;;;14.30;99.90;;;;;;5054883;28;20079;-62
2021/03/14 02:54:49;;;;;;;5.07;1.50;;;14.30;99.90;;;;;;5054727;28;20041;-61
2021/03/14 02:57:20;;;;;;;5.22;1.83;;;14.30;99.90;;;;;;5055499;28;20407;-61
2021/03/14 02:59:48;;;;;;;5.80;1.50;;;14.30;99.90;;;;;;5055506;28;20040;-61
2021/03/14 03:02:15;;;;;;;8.73;1.90;;;14.30;99.90;;;;;;5055051;28;20106;-60
2021/03/14 03:04:43;;;;;;;4.43;1.65;;;14.30;99.90;;;;;;5054804;28;20029;-61
2021/03/14 03:07:09;;;;;;;6.03;1.40;;;14.30;99.90;;;;;;5054921;28;20041;-61
2021/03/14 03:09:35;;;;;;;6.05;1.60;;;14.30;99.90;;;;;;5054013;28;20033;-61
2021/03/14 03:12:01;;;;;;;6.50;1.67;;;14.30;99.90;;;;;;5054302;28;20053;-61
2021/03/14 03:14:30;;;;;;;5.75;1.60;;;14.30;99.90;;;;;;5053227;28;20441;-61
2021/03/14 03:16:56;;;;;;;5.07;1.27;;;14.30;99.90;;;;;;5054723;28;20082;-61
2021/03/14 03:19:23;;;;;;;3.22;1.08;;;14.30;99.90;;;;;;5054473;28;20032;-61
2021/03/14 03:21:51;;;;;;;5.72;1.70;;;14.20;99.90;;;;;;5054921;28;20029;-61
2021/03/14 03:24:17;;;;;;;8.90;1.67;;;14.20;99.90;;;;;;5054765;28;20059;-61
2021/03/14 03:26:46;;;;;;;5.82;1.42;;;14.20;99.90;;;;;;5054591;28;20511;-61
2021/03/14 03:29:16;;;;;;;5.38;1.50;;;14.20;99.90;;;;;;5054416;28;20020;-61
2021/03/14 03:31:43;;;;;;;5.57;1.50;;;14.20;99.90;;;;;;5054007;28;20033;-61
2021/03/14 03:34:09;;;;;;;4.28;1.50;;;14.20;99.90;;;;;;5054352;28;20381;-61
2021/03/14 03:36:36;;;;;;;4.88;1.33;;;14.20;99.90;;;;;;5054142;28;20044;-61
2021/03/14 03:39:06;;;;;;;4.47;1.10;;;14.20;99.90;;;;;;5054118;28;20465;-61
2021/03/14 03:41:33;;;;;;;5.28;1.40;;;14.20;99.90;;;;;;5047945;28;20477;-61
2021/03/14 03:44:00;;;;;;;6.55;1.52;;;14.20;99.90;;;;;;5053867;28;20100;-61
2021/03/14 03:46:27;;;;;;;5.32;1.40;;;14.20;99.90;;;;;;5052997;28;20033;-61
2021/03/14 03:48:55;;;;;;;3.30;1.25;;;14.20;99.90;;;;;;5053868;28;20136;-62
2021/03/14 03:51:25;;;;;;;4.30;1.10;;;14.20;99.90;;;;;;5054000;28;20491;-61
2021/03/14 03:53:51;;;;;;;9.70;1.50;;;14.20;99.90;;;;;;5054068;28;20032;-61
2021/03/14 03:56:17;;;;;;;5.35;1.40;;;14.20;99.90;;;;;;5054267;28;20060;-60
2021/03/14 03:58:44;;;;;;;7.60;1.40;;;14.10;99.90;;;;;;5053975;28;20053;-61
2021/03/14 04:01:11;;;;;;;4.13;1.20;;;14.10;99.90;;;;;;5053345;28;20032;-60
2021/03/14 04:03:40;;;;;;;5.15;1.17;;;14.10;99.90;;;;;;5054081;28;20021;-61
2021/03/14 04:06:07;;;;;;;5.15;1.33;;;14.10;99.90;;;;;;5053873;28;20017;-61
2021/03/14 04:08:35;;;;;;;4.43;1.50;;;14.10;99.90;;;;;;5053698;28;20029;-61
2021/03/14 04:11:09;;;;;;;5.10;1.23;;;14.10;99.90;;;;;;5053803;28;20096;-61
2021/03/14 04:13:36;;;;;;;5.70;1.30;;;14.10;99.90;;;;;;5053768;28;20029;-61
2021/03/14 04:16:04;;;;;;;4.00;1.42;;;14.10;99.90;;;;;;5053422;28;20045;-61
2021/03/14 04:18:33;;;;;;;4.72;1.38;;;14.10;99.90;;;;;;5053889;28;20040;-61
2021/03/14 04:21:01;;;;;;;5.00;1.52;;;14.10;99.90;;;;;;5053526;28;20138;-61
2021/03/14 04:23:28;;;;;;;3.90;1.42;;;14.10;99.90;;;;;;5053392;28;20113;-61
2021/03/14 04:25:55;;;;;;;7.40;1.60;;;14.10;99.90;;;;;;5053432;28;20502;-61
2021/03/14 04:28:27;;;;;;;4.55;1.35;;;14.10;99.90;;;;;;5053736;28;20033;-61
2021/03/14 04:30:53;;;;;;;5.90;1.40;;;14.10;99.90;;;;;;5043295;28;20491;-61
2021/03/14 04:33:20;;;;;;;2.90;1.05;;;14.10;99.90;;;;;;5053095;28;20108;-61
2021/03/14 04:35:46;;;;;;;3.65;1.30;;;14.00;99.90;;;;;;5053301;28;20037;-61
2021/03/14 04:38:13;;;;;;;5.25;1.35;;;14.10;99.90;;;;;;5053178;28;20473;-61
2021/03/14 04:40:40;;;;;;;5.25;1.40;;;14.10;99.90;;;;;;5052582;28;20029;-61
2021/03/14 04:43:06;;;;;;;4.55;1.25;;;14.10;99.90;;;;;;5053137;28;20380;-61
2021/03/14 04:45:34;;;;;;;6.50;1.30;;;14.10;99.90;;;;;;5052544;28;20033;-61
2021/03/14 04:47:59;;;;;;;6.20;1.40;;;14.10;99.90;;;;;;5052969;28;20087;-61
2021/03/14 04:50:27;;;;;;;3.97;1.10;;;14.00;99.90;;;;;;5052834;28;20025;-61
2021/03/14 04:52:57;;;;;;;5.20;1.63;;;14.00;99.90;;;;;;5052917;28;20078;-61
2021/03/14 04:55:24;;;;;;;3.25;1.13;;;14.10;99.90;;;;;;5053381;28;20415;-61
2021/03/14 04:57:50;;;;;;;7.15;1.58;;;14.10;99.90;;;;;;5052879;28;20043;-61
2021/03/14 05:00:18;;;;;;;6.18;1.30;;;14.00;99.90;;;;;;5051906;28;20040;-61
2021/03/14 05:02:47;;;;;;;4.70;1.20;;;14.00;99.90;;;;;;5052663;28;20024;-61
2021/03/14 05:05:13;;;;;;;3.30;0.90;;;14.00;99.90;;;;;;5052768;28;20048;-61
2021/03/14 05:07:44;;;;;;;9.55;1.42;;;14.10;99.90;;;;;;5052360;28;20039;-61
2021/03/14 05:10:17;;;;;;;5.82;1.33;;;14.00;99.90;;;;;;5052695;28;20033;-60
2021/03/14 05:12:43;;;;;;;5.55;1.27;;;14.10;99.90;;;;;;5052791;28;20029;-61
2021/03/14 05:15:15;;;;;;;5.43;1.10;;;14.10;99.90;;;;;;5052142;28;20029;-61
2021/03/14 05:17:42;;;;;;;5.30;1.35;;;14.10;99.90;;;;;;5042180;28;20029;-60
2021/03/14 05:20:12;;;;;;;4.53;1.00;;;14.10;99.90;;;;;;5052527;28;20113;-60
2021/03/14 05:22:39;;;;;;;6.25;1.23;;;14.10;99.90;;;;;;5052597;28;20071;-60
2021/03/14 05:25:06;;;;;;;2.42;0.90;;;14.10;99.90;;;;;;5052206;28;20025;-60
2021/03/14 05:27:32;;;;;;;4.13;1.10;;;14.10;99.90;;;;;;5052476;28;20060;-62
2021/03/14 05:29:58;;;;;;;5.72;1.30;;;14.10;99.90;;;;;;5051707;28;20021;-62
2021/03/14 05:32:24;;;;;;;2.70;1.00;;;14.00;99.90;;;;;;5052277;28;20043;-61
2021/03/14 05:34:50;;;;;;;3.83;1.10;;;14.10;99.90;;;;;;5052091;28;20111;-59
2021/03/14 05:37:16;;;;;;;4.57;1.15;;;14.10;99.90;;;;;;5052166;28;20240;-60
2021/03/14 05:39:42;;;;;;;4.72;1.20;;;14.10;99.90;;;;;;5051647;28;20035;-60
2021/03/14 05:42:08;;;;;;;4.70;1.20;;;14.10;99.90;;;;;;5051643;28;20025;-61
2021/03/14 05:44:35;;;;;;;3.90;1.40;;;14.00;99.90;;;;;;5051746;28;20025;-61
2021/03/14 05:47:00;;;;;;;6.60;1.10;;;14.00;99.90;;;;;;5051531;28;20041;-59
2021/03/14 05:49:26;;;;;;;3.65;0.95;;;14.00;99.90;;;;;;5052096;28;20107;-58
2021/03/14 05:51:53;;;;;;;4.60;1.45;;;14.00;99.90;;;;;;5052399;28;20025;-61
2021/03/14 05:54:19;;;;;;;4.13;1.00;;;14.00;99.90;;;;;;5051823;28;20104;-61
2021/03/14 05:56:49;;;;;;;3.83;1.08;;;14.10;99.90;;;;;;5051796;28;20039;-61
2021/03/14 05:59:17;;;;;;;4.25;1.20;;;14.00;99.90;;;;;;5051829;28;20388;-61
2021/03/14 06:01:51;;;;;;;5.20;1.20;;;14.10;99.90;;;;;;5050497;28;20013;-60
2021/03/14 06:04:18;;;;;;;2.70;1.08;;;14.10;99.90;;;;;;5051842;28;20033;-61
2021/03/14 06:06:46;;;;;;;4.18;1.23;;;14.00;99.90;;;;;;5051592;28;20029;-61
2021/03/14 06:09:13;;;;;;;4.55;1.05;;;14.00;99.90;;;;;;5051491;28;20033;-62
2021/03/14 06:11:39;;;;;;;5.43;1.27;;;14.00;99.90;;;;;;5050845;28;20028;-60
2021/03/14 06:14:04;;;;;;;4.53;1.25;;;14.00;99.90;;;;;;5051540;28;20043;-61
2021/03/14 06:16:30;;;;;;;4.40;1.10;;;14.00;99.90;;;;;;5051238;28;20115;-61
2021/03/14 06:18:57;;;;;;;4.03;1.02;;;14.00;99.90;;;;;;5051965;28;20544;-61
2021/03/14 06:21:24;;;;;;;4.55;1.10;;;14.00;99.90;;;;;;5051687;28;20021;-60
2021/03/14 06:23:56;;;;;;;3.45;0.93;;;14.10;99.90;;;;;;5051496;28;20041;-60
2021/03/14 06:26:43;;;;;;;5.28;1.10;;;14.10;99.90;;;;;;5050057;28;20039;-60
2021/03/14 06:29:17;;;;;;;3.47;1.00;;;14.10;99.90;;;;;;5051730;28;20423;-60
2021/03/14 06:31:48;;;;;;;4.68;0.90;;;14.10;99.90;;;;;;5049400;28;20110;-60
2021/03/14 06:34:33;;;;;;;4.07;1.17;;;14.10;99.90;;;;;;5051324;28;20501;-60
2021/03/14 06:37:18;;;;;;;3.08;1.00;;;14.10;99.90;;;;;;5051609;28;20075;-60
2021/03/14 06:39:46;;;;;;;3.05;1.20;;;14.10;99.90;;;;;;5050877;28;20076;-60
2021/03/14 06:42:30;;;;;;;5.18;1.20;;;14.10;99.90;;;;;;5051663;28;20086;-61
2021/03/14 06:45:04;;;;;;;3.03;1.00;;;14.10;99.90;;;;;;5051482;28;20035;-61
2021/03/14 06:47:48;;;;;;;3.30;1.20;;;14.10;99.90;;;;;;5050509;28;20028;-60
2021/03/14 06:50:40;;;;;;;3.95;1.15;;;14.10;99.90;;;;;;5051511;28;20113;-60
2021/03/14 06:53:19;;;;;;;4.60;1.15;;;14.10;99.90;;;;;;5046912;28;20036;-61
2021/03/14 06:55:52;;;;;;;3.55;1.17;;;14.10;99.90;;;;;;5051322;28;20037;-61
2021/03/14 06:58:24;;;;;;;4.90;1.13;;;14.10;99.90;;;;;;5051343;28;20595;-61
2021/03/14 07:01:05;;;;;;;6.35;1.42;;;14.10;99.90;;;;;;5050259;28;20670;-61
2021/03/14 07:03:31;;;;;;;4.05;0.93;;;14.10;99.90;;;;;;5050715;28;20456;-60
2021/03/14 07:06:16;;;;;;;4.25;1.00;;;14.20;99.90;;;;;;5051217;28;20052;-61
2021/03/14 07:08:42;;;;;;;6.82;1.13;;;14.20;99.90;;;;;;5051542;28;20083;-61
2021/03/14 07:11:09;;;;;;;3.20;0.80;;;14.20;99.90;;;;;;5050715;28;20017;-61
2021/03/14 07:13:37;;;;;;;3.08;0.90;;;14.20;99.90;;;;;;5051449;28;20032;-62
2021/03/14 07:16:04;;;;;;;3.97;1.05;;;14.20;99.90;;;;;;5047345;28;20123;-59
2021/03/14 07:18:29;;;;;;;2.20;0.90;;;14.10;99.90;;;;;;5046995;28;20021;-61
2021/03/14 07:20:55;;;;;;;3.03;1.05;;;14.30;99.90;;;;;;5048799;28;20055;-60
2021/03/14 07:23:32;;;;;;;2.35;0.85;;;14.50;99.90;;;;;;5046458;28;20029;-62
2021/03/14 07:25:58;;;;;;;3.20;0.82;;;14.90;99.90;;;;;;5052430;28;20415;-62
2021/03/14 07:28:25;;;;;;;2.60;0.65;;;15.20;99.90;;;;;;5053908;28;20100;-61
2021/03/14 07:30:51;;;;;;;6.90;0.70;;;15.30;99.70;;;;;;5052373;28;20389;-62
2021/03/14 07:33:18;;;;;;;2.90;0.60;;;15.40;99.90;;;;;;5052746;28;20025;-62
2021/03/14 07:35:44;;;;;;;4.05;1.00;;;15.50;99.80;;;;;;5054386;28;20511;-64
2021/03/14 07:38:11;;;;;;;3.97;0.82;;;15.70;98.80;;;;;;5054368;28;20102;-62
2021/03/14 07:40:37;;;;;;;5.70;0.75;;;15.60;99.60;;;;;;5054512;28;20488;-65
2021/03/14 07:43:03;;;;;;;4.15;1.05;;;15.70;98.70;;;;;;5052837;28;20045;-62
2021/03/14 07:45:31;;;;;;;3.42;0.90;;;15.80;97.90;;;;;;5053191;28;20020;-62
2021/03/14 07:47:57;;;;;;;3.25;0.90;;;16.00;97.50;;;;;;5051888;28;20063;-62
2021/03/14 07:50:26;;;;;;;2.28;0.90;;;16.10;97.10;;;;;;5051684;28;20041;-63
2021/03/14 07:53:00;;;;;;;2.72;0.80;;;16.20;96.90;;;;;;5052189;28;20040;-63
2021/03/14 07:55:26;;;;;;;3.13;0.90;;;16.30;96.70;;;;;;5052781;28;20028;-62
2021/03/14 07:57:52;;;;;;;13.35;1.42;;;16.50;96.50;;;;;;5054201;28;20477;-63
2021/03/14 08:00:32;;;;;;;4.13;0.80;;;16.60;97.90;;;;;;5052198;28;20039;-62
2021/03/14 08:03:07;;;;;;;3.83;0.80;;;16.60;97.40;;;;;;5053830;28;20496;-63
2021/03/14 08:05:49;;;;;;;3.10;1.05;;;16.70;97.60;;;;;;5053009;28;20033;-63
2021/03/14 08:08:24;;;;;;;2.42;0.80;;;16.60;97.30;;;;;;5052953;28;20025;-63
2021/03/14 08:10:49;;;;;;;2.53;0.70;;;16.70;97.10;;;;;;5053793;28;20029;-62
2021/03/14 08:13:30;;;;;;;1.58;0.60;;;16.80;97.00;;;;;;5053303;28;20025;-62
2021/03/14 08:16:10;;;;;;;3.75;0.77;;;16.80;96.90;;;;;;5051741;28;20087;-62
2021/03/14 08:18:46;;;;;;;3.63;1.38;;;16.90;96.90;;;;;;5052603;28;20017;-62
2021/03/14 08:21:21;;;;;;;6.55;2.42;;;17.00;96.90;;;;;;5050024;28;20393;-62
2021/03/14 08:23:48;;;;;;;5.72;3.70;;;17.10;96.90;;;;;;5052332;28;20055;-62
2021/03/14 08:26:24;;;;;;;7.22;4.00;;;17.10;96.80;;;;;;5052546;28;20067;-62
2021/03/14 08:28:53;;;;;;;6.03;3.83;;;17.20;96.90;;;;;;5053250;28;20462;-61
2021/03/14 08:31:42;;;;;;;7.13;4.20;;;17.30;96.90;;;;;;5051470;28;20029;-63
2021/03/14 08:34:16;;;;;;;7.50;4.15;;;17.40;96.80;;;;;;5052015;28;20108;-63
2021/03/14 08:36:43;;;;;;;5.50;3.83;;;17.40;96.80;;;;;;5053536;28;20415;-63
2021/03/14 08:39:27;;;;;;;6.13;3.40;;;17.50;96.70;;;;;;5052670;28;20025;-63
2021/03/14 08:41:59;;;;;;;5.88;3.20;;;17.60;96.70;;;;;;5052499;28;20021;-64
2021/03/14 08:44:39;;;;;;;6.57;3.38;;;17.60;96.70;;;;;;5052958;28;20075;-63
2021/03/14 08:47:11;;;;;;;5.53;2.97;;;17.70;96.50;;;;;;5051316;28;20024;-62
2021/03/14 08:49:54;;;;;;;7.20;3.00;;;17.80;96.50;;;;;;5049964;28;20385;-62
2021/03/14 08:52:20;;;;;;;7.20;2.97;;;17.80;96.40;;;;;;5051921;28;20049;-62
2021/03/14 08:54:54;;;;;;;6.85;2.55;;;17.80;96.40;;;;;;5052101;28;20040;-62
2021/03/14 08:57:20;;;;;;;8.60;3.03;;;17.90;96.30;;;;;;5053176;28;20052;-62
2021/03/14 08:59:50;;;;;;;6.38;2.80;;;18.00;96.30;;;;;;5052059;28;20108;-63
2021/03/14 09:02:30;;;;;;;8.85;3.33;;;18.10;96.20;;;;;;5055810;28;20029;-60
2021/03/14 09:05:11;;;;;;;7.68;2.53;;;18.10;96.20;;;;;;5051811;28;20032;-63
2021/03/14 09:07:37;;;;;;;4.97;2.70;;;18.20;96.10;;;;;;5049862;28;20025;-60
2021/03/14 09:10:33;;;;;;;5.13;2.30;;;18.30;96.10;;;;;;5053031;28;20104;-64
2021/03/14 09:13:01;;;;;;;7.57;2.38;;;18.40;96.00;;;;;;5050584;28;20037;-63
2021/03/14 09:15:27;;;;;;;6.50;2.20;;;18.40;96.00;;;;;;5051207;28;20041;-63
2021/03/14 09:17:57;;;;;;;4.88;1.95;;;18.50;96.00;;;;;;5052555;28;20033;-63
2021/03/14 09:20:23;;;;;;;6.05;2.05;;;18.50;95.90;;;;;;5050398;28;20025;-62
2021/03/14 09:22:49;;;;;;;4.15;2.00;;;18.60;95.90;;;;;;5051199;28;20033;-63
2021/03/14 09:25:16;;;;;;;7.10;2.30;;;18.70;95.80;;;;;;5047853;28;20380;-64
2021/03/14 09:27:45;;;;;;;7.47;2.35;;;18.70;96.10;;;;;;5035386;28;20071;-63
2021/03/14 09:30:13;;;;;;;6.43;2.20;;;18.80;96.20;;;;;;5045749;28;20028;-63
2021/03/14 09:32:42;;;;;;;8.88;2.05;;;18.90;96.00;;;;;;5065036;28;20025;-64
2021/03/14 09:35:27;;;;;;;6.13;1.98;;;19.00;96.00;;;;;;5046918;28;20075;-63
2021/03/14 09:37:54;;;;;;;6.20;2.10;;;19.10;95.90;;;;;;5051379;28;20045;-63
2021/03/14 09:40:30;;;;;;;6.13;2.15;;;19.20;95.90;;;;;;5050728;28;20067;-64
2021/03/14 09:43:04;;;;;;;4.85;1.88;;;19.30;96.30;;;;;;5051353;28;20124;-65
2021/03/14 09:45:30;;;;;;;7.13;2.05;;;19.40;96.20;;;;;;5048991;28;20025;-63
2021/03/14 09:48:05;;;;;;;6.75;2.10;;;19.50;95.90;;;;;;5049934;28;20396;-65
2021/03/14 09:50:32;;;;;;;4.68;1.92;;;19.60;96.70;;;;;;5046605;28;20056;-63
2021/03/14 09:53:00;;;;;;;3.95;1.80;;;19.60;95.90;;;;;;5051064;28;20021;-62
2021/03/14 09:55:32;;;;;;;3.63;1.65;;;19.70;95.90;;;;;;5050925;28;20037;-64
2021/03/14 09:57:58;;;;;;;5.80;2.17;;;19.80;95.70;;;;;;5050581;28;20021;-64
2021/03/14 10:00:29;;;;;;;6.03;1.88;;;19.80;95.80;;;;;;5048676;28;20029;-62
2021/03/14 10:02:58;;;;;;;6.80;1.90;;;19.90;95.80;;;;;;5050504;28;20025;-63
2021/03/14 10:05:24;;;;;;;8.13;2.60;;;19.90;95.80;;;;;;5050761;28;20098;-63
2021/03/14 10:07:51;;;;;;;10.80;4.07;;;20.00;96.00;;;;;;5050265;28;20496;-63
2021/03/14 10:10:17;;;;;;;9.45;3.75;;;20.10;95.80;;;;;;5050587;28;20481;-62
2021/03/14 10:12:44;;;;;;;13.57;5.68;;;20.20;95.60;;;;;;5050721;28;20033;-62
2021/03/14 10:15:14;;;;;;;16.10;6.70;;;20.20;95.70;;;;;;5050123;28;21855;-64
2021/03/14 10:17:40;;;;;;;18.83;9.30;;;20.30;95.80;;;;;;5048573;28;20535;-64
2021/03/14 10:20:06;;;;;;;25.08;10.95;;;20.30;95.70;;;;;;5050440;28;20024;-63
2021/03/14 10:22:33;;;;;;;30.50;13.75;;;20.50;95.80;;;;;;5048588;28;20028;-64
2021/03/14 10:24:59;;;;;;;25.92;13.75;;;20.50;95.50;;;;;;5048312;28;20032;-64
2021/03/14 10:27:25;;;;;;;33.33;16.60;;;20.50;96.00;;;;;;5050281;28;20100;-63
2021/03/14 10:29:59;;;;;;;31.38;15.85;;;20.60;95.40;;;;;;5049806;28;20025;-67
2021/03/14 10:32:27;;;;;;;34.20;15.85;;;20.70;95.70;;;;;;5049291;28;20523;-63
2021/03/14 10:34:58;;;;;;;28.95;15.30;;;20.70;96.40;;;;;;5050395;28;20571;-64
2021/03/14 10:37:35;;;;;;;34.67;16.20;;;20.80;96.20;;;;;;5050182;28;20539;-65
2021/03/14 10:40:07;;;;;;;31.17;16.02;;;20.80;95.90;;;;;;5050935;28;20040;-63
2021/03/14 10:42:37;;;;;;;30.23;15.65;;;20.90;95.80;;;;;;5049763;28;20013;-64
2021/03/14 10:45:13;;;;;;;28.15;15.52;;;21.00;95.90;;;;;;5034319;28;20059;-65
2021/03/14 10:47:39;;;;;;;29.23;15.45;;;21.10;95.90;;;;;;5050331;28;20036;-65
2021/03/14 10:50:09;;;;;;;30.75;14.88;;;21.20;95.80;;;;;;5050086;28;20155;-67
2021/03/14 10:52:35;;;;;;;26.73;13.52;;;21.20;95.30;;;;;;5049625;28;20070;-65
2021/03/14 10:55:00;;;;;;;25.85;13.85;;;21.20;95.60;;;;;;5048530;28;20125;-67
2021/03/14 10:57:26;;;;;;;23.77;12.20;;;21.20;95.60;;;;;;5053640;28;20388;-70
2021/03/14 11:00:07;;;;;;;25.80;13.82;;;21.30;95.50;;;;;;5054826;28;20032;-67
2021/03/14 11:02:42;;;;;;;27.35;12.48;;;21.40;95.80;;;;;;5054079;28;20013;-65
2021/03/14 11:05:08;;;;;;;21.58;12.10;;;21.40;95.60;;;;;;5069991;28;20468;-66
2021/03/14 11:07:36;;;;;;;20.17;11.10;;;21.30;95.20;;;;;;5054275;28;20715;-65
2021/03/14 11:10:16;;;;;;;20.80;11.52;;;21.40;94.90;;;;;;5052774;28;20064;-65
2021/03/14 11:12:44;;;;;;;22.20;10.82;;;21.50;94.90;;;;;;5053985;28;20524;-64
2021/03/14 11:15:28;;;;;;;18.73;9.77;;;21.50;95.00;;;;;;5053805;28;20033;-65
2021/03/14 11:17:55;;;;;;;20.80;9.77;;;21.40;95.60;;;;;;5048039;28;20066;-63
2021/03/14 11:20:22;;;;;;;22.90;9.88;;;21.30;96.20;;;;;;5058888;28;20482;-63
2021/03/14 11:22:53;;;;;;;22.33;7.78;;;21.10;96.90;;;;;;5052490;28;20171;-66
2021/03/14 11:25:20;;;;;;;21.42;7.82;;;20.70;97.50;;;;;;5052718;28;20024;-63
2021/03/14 11:27:47;;;;;;;19.48;7.32;;;20.80;97.50;;;;;;5053079;28;20042;-65
2021/03/14 11:30:15;;;;;;;15.02;6.95;;;21.00;96.70;;;;;;5053402;28;20078;-66
2021/03/14 11:32:41;;;;;;;15.77;7.03;;;21.10;96.50;;;;;;5053709;28;20032;-64
2021/03/14 11:35:08;;;;;;;15.57;6.72;;;21.20;96.50;;;;;;5053257;28;20502;-64
2021/03/14 11:37:34;;;;;;;13.95;6.45;;;21.20;96.30;;;;;;5052963;28;20112;-62
2021/03/14 11:40:00;;;;;;;12.55;6.57;;;21.20;96.30;;;;;;5053065;28;20031;-64
2021/03/14 11:42:26;;;;;;;14.15;6.20;;;21.20;96.40;;;;;;5051525;28;20115;-63
2021/03/14 11:44:51;;;;;;;17.10;6.95;;;21.20;96.70;;;;;;5053512;28;20025;-63
2021/03/14 11:47:17;;;;;;;12.00;5.82;;;21.20;96.30;;;;;;5053196;28;20435;-61
2021/03/14 11:49:42;;;;;;;12.52;6.13;;;21.20;96.40;;;;;;5052675;28;20032;-62
2021/03/14 11:52:08;;;;;;;13.38;5.63;;;21.10;96.50;;;;;;5051746;28;20476;-62
2021/03/14 11:54:34;;;;;;;12.75;6.00;;;21.10;96.60;;;;;;5053516;28;20385;-64
2021/03/14 11:56:59;;;;;;;14.77;5.93;;;21.10;96.50;;;;;;5052056;28;20129;-64
2021/03/14 11:59:25;;;;;;;11.23;5.53;;;21.10;96.80;;;;;;5052969;28;20436;-61
2021/03/14 12:01:50;;;;;;;10.90;5.55;;;21.10;96.90;;;;;;5051565;28;20108;-64
2021/03/14 12:04:17;;;;;;;12.23;5.28;;;21.00;96.40;;;;;;5053175;28;20076;-65
2021/03/14 12:06:43;;;;;;;11.25;4.82;;;21.10;96.40;;;;;;5052299;28;20137;-61
2021/03/14 12:09:09;;;;;;;9.90;4.85;;;21.00;96.70;;;;;;5052403;28;20444;-62
2021/03/14 12:11:35;;;;;;;11.27;4.53;;;20.90;96.30;;;;;;5052410;28;20553;-61
2021/03/14 12:14:01;;;;;;;8.95;4.05;;;20.90;96.30;;;;;;5051958;28;20036;-62
2021/03/14 12:16:27;;;;;;;9.45;4.55;;;20.80;96.80;;;;;;5051004;28;20033;-61
2021/03/14 12:18:52;;;;;;;8.82;4.55;;;20.90;96.20;;;;;;5051952;28;20151;-67
2021/03/14 12:21:18;;;;;;;10.98;4.78;;;20.80;96.00;;;;;;5051673;28;20025;-68
2021/03/14 12:23:44;;;;;;;8.63;4.47;;;20.80;95.60;;;;;;5051902;28;20025;-65
2021/03/14 12:26:09;;;;;;;12.20;6.18;;;20.80;95.60;;;;;;5053183;28;20048;-68
2021/03/14 12:28:35;;;;;;;14.43;8.82;;;20.60;95.60;;;;;;5051446;28;20095;-65
2021/03/14 12:31:01;;;;;;;12.68;7.78;;;20.50;95.20;;;;;;5051913;28;20481;-64
2021/03/14 12:33:27;;;;;;;9.68;5.70;;;20.40;95.50;;;;;;5057044;28;20490;-64
2021/03/14 12:35:53;;;;;;;12.98;5.65;;;20.40;95.50;;;;;;5052618;28;20126;-64
2021/03/14 12:38:19;;;;;;;9.48;5.60;;;20.30;95.20;;;;;;5052220;28;20086;-63
2021/03/14 12:40:46;;;;;;;11.57;5.13;;;20.30;95.20;;;;;;5051523;28;20488;-63
2021/03/14 12:43:16;;;;;;;10.10;4.53;;;20.30;95.30;;;;;;5051221;28;20025;-63
2021/03/14 12:45:42;;;;;;;7.35;3.90;;;20.30;95.20;;;;;;5051827;28;20527;-64
2021/03/14 12:48:09;;;;;;;7.72;4.10;;;20.20;95.20;;;;;;5050105;28;20036;-63
2021/03/14 12:50:35;;;;;;;8.82;4.20;;;20.20;95.20;;;;;;5051545;28;20435;-64